createdAt,value
2023-10-25T00:01:16.544Z,12.40
2023-10-25T00:03:57.685Z,12.30
2023-10-25T00:06:26.424Z,12.30
2023-10-25T00:08:58.173Z,12.40
2023-10-25T00:11:28.825Z,12.40
2023-10-25T00:13:57.682Z,12.50
2023-10-25T00:16:27.447Z,12.40
2023-10-25T00:18:56.445Z,12.40
2023-10-25T00:21:25.430Z,12.50
2023-10-25T00:23:57.020Z,12.50
2023-10-25T00:26:31.594Z,12.50
2023-10-25T00:29:00.216Z,12.40
2023-10-25T00:31:31.211Z,12.50
2023-10-25T00:33:58.732Z,12.40
2023-10-25T00:36:26.960Z,12.50
2023-10-25T00:38:58.294Z,12.50
2023-10-25T00:41:26.009Z,12.60
2023-10-25T00:43:55.771Z,11.40
2023-10-25T00:46:30.451Z,12.50
2023-10-25T00:49:04.824Z,12.50
2023-10-25T00:51:33.691Z,12.50
2023-10-25T00:54:03.880Z,12.50
2023-10-25T00:56:31.615Z,12.50
2023-10-25T00:58:58.778Z,12.50
2023-10-25T01:01:36.873Z,12.60
2023-10-25T01:04:07.642Z,13.50
2023-10-25T01:06:36.849Z,12.60
2023-10-25T01:09:06.142Z,12.60
2023-10-25T01:11:34.099Z,12.60
2023-10-25T01:14:02.905Z,12.60
2023-10-25T01:16:35.310Z,12.60
2023-10-25T01:19:04.449Z,12.60
2023-10-25T01:21:31.754Z,12.70
2023-10-25T01:23:59.661Z,12.70
2023-10-25T01:26:26.738Z,12.70
2023-10-25T01:28:54.479Z,12.70
2023-10-25T01:31:22.202Z,12.70
2023-10-25T01:33:53.151Z,12.70
2023-10-25T01:36:23.314Z,12.80
2023-10-25T01:38:53.145Z,12.70
2023-10-25T01:41:20.448Z,12.80
2023-10-25T01:43:47.813Z,12.70
2023-10-25T01:46:23.382Z,12.70
2023-10-25T01:48:56.719Z,12.70
2023-10-25T01:51:32.434Z,12.70
2023-10-25T01:53:59.791Z,12.60
2023-10-25T01:56:31.789Z,12.70
2023-10-25T01:59:03.069Z,12.70
2023-10-25T02:01:30.932Z,12.70
2023-10-25T02:04:00.169Z,12.70
2023-10-25T02:06:28.711Z,12.70
2023-10-25T02:08:55.558Z,12.70
2023-10-25T02:11:23.309Z,12.70
2023-10-25T02:13:55.251Z,12.70
2023-10-25T02:16:28.968Z,12.70
2023-10-25T02:19:05.823Z,12.80
2023-10-25T02:21:40.844Z,12.70
2023-10-25T02:24:09.705Z,12.80
2023-10-25T02:26:36.624Z,12.70
2023-10-25T02:29:03.552Z,12.70
2023-10-25T02:31:33.450Z,12.70
2023-10-25T02:34:02.959Z,12.80
2023-10-25T02:36:31.294Z,12.80
2023-10-25T02:39:00.046Z,12.70
2023-10-25T02:41:32.597Z,12.70
2023-10-25T02:44:00.409Z,12.70
2023-10-25T02:46:29.337Z,12.80
2023-10-25T02:48:56.312Z,12.80
2023-10-25T02:51:24.620Z,12.90
2023-10-25T02:53:56.726Z,12.90
2023-10-25T02:56:25.485Z,12.90
2023-10-25T02:58:54.930Z,12.90
2023-10-25T03:01:25.166Z,12.90
2023-10-25T03:03:53.001Z,13.90
2023-10-25T03:06:23.232Z,12.90
2023-10-25T03:08:53.276Z,13.00
2023-10-25T03:11:21.379Z,12.90
2023-10-25T03:13:51.468Z,12.90
2023-10-25T03:16:18.991Z,12.90
2023-10-25T03:18:46.953Z,12.90
2023-10-25T03:21:19.156Z,12.90
2023-10-25T03:23:48.633Z,12.90
2023-10-25T03:26:17.608Z,12.90
2023-10-25T03:28:45.052Z,12.90
2023-10-25T03:31:15.944Z,12.90
2023-10-25T03:33:43.408Z,12.90
2023-10-25T03:36:13.745Z,12.80
2023-10-25T03:38:41.132Z,14.40
2023-10-25T03:41:11.279Z,12.80
2023-10-25T03:43:41.250Z,12.80
2023-10-25T03:46:14.072Z,12.70
2023-10-25T03:48:41.142Z,12.60
2023-10-25T03:51:11.678Z,12.60
2023-10-25T03:53:40.005Z,12.70
2023-10-25T03:56:10.502Z,12.60
2023-10-25T03:58:38.541Z,12.60
2023-10-25T04:01:09.436Z,12.60
2023-10-25T04:03:40.400Z,12.50
2023-10-25T04:17:29.327Z,12.40
2023-10-25T04:19:59.337Z,12.40
2023-10-25T04:22:30.815Z,12.40
2023-10-25T04:25:05.564Z,12.40
2023-10-25T04:27:36.609Z,12.30
2023-10-25T04:30:06.867Z,12.40
2023-10-25T04:32:34.088Z,12.30
2023-10-25T04:35:07.528Z,12.30
2023-10-25T04:37:36.119Z,12.40
2023-10-25T04:40:16.704Z,12.50
2023-10-25T04:42:48.472Z,12.30
2023-10-25T04:45:18.306Z,12.40
2023-10-25T04:47:45.186Z,12.40
2023-10-25T04:50:12.757Z,12.40
2023-10-25T04:52:41.180Z,11.20
2023-10-25T04:55:12.972Z,12.40
2023-10-25T04:57:41.928Z,12.40
2023-10-25T05:00:12.812Z,12.40
2023-10-25T05:02:41.064Z,12.50
2023-10-25T05:05:12.852Z,12.50
2023-10-25T05:07:40.243Z,12.60
2023-10-25T05:10:12.154Z,12.50
2023-10-25T05:12:54.763Z,12.70
2023-10-25T05:15:21.993Z,12.70
2023-10-25T05:17:49.118Z,12.70
2023-10-25T05:20:17.171Z,12.70
2023-10-25T05:22:50.846Z,12.80
2023-10-25T05:25:21.799Z,12.80
2023-10-25T05:27:51.879Z,12.90
2023-10-25T05:30:24.916Z,12.80
2023-10-25T05:33:04.819Z,12.90
2023-10-25T05:35:32.457Z,12.90
2023-10-25T05:38:07.724Z,12.90
2023-10-25T05:40:35.074Z,12.90
2023-10-25T05:43:03.921Z,12.90
2023-10-25T05:45:31.034Z,12.90
2023-10-25T05:48:02.611Z,13.00
2023-10-25T05:50:32.396Z,13.00
2023-10-25T05:53:03.861Z,13.10
2023-10-25T05:55:39.003Z,13.00
2023-10-25T05:58:06.129Z,13.00
2023-10-25T06:00:33.186Z,13.10
2023-10-25T06:03:02.296Z,13.10
2023-10-25T06:05:35.293Z,13.10
2023-10-25T06:08:09.351Z,13.20
2023-10-25T06:10:40.194Z,13.20
2023-10-25T06:13:07.200Z,13.30
2023-10-25T06:15:34.993Z,13.40
2023-10-25T06:18:01.976Z,13.40
2023-10-25T06:20:30.326Z,13.50
2023-10-25T06:23:00.425Z,13.40
2023-10-25T06:25:28.813Z,13.50
2023-10-25T06:27:59.516Z,13.40
2023-10-25T06:30:30.202Z,13.50
2023-10-25T06:33:00.388Z,13.40
2023-10-25T06:35:27.674Z,13.30
2023-10-25T06:37:58.248Z,13.30
2023-10-25T06:40:27.238Z,13.50
2023-10-25T06:42:54.556Z,13.40
2023-10-25T06:45:21.584Z,13.50
2023-10-25T06:47:48.738Z,13.60
2023-10-25T06:50:18.288Z,13.50
2023-10-25T06:52:45.940Z,13.50
2023-10-25T06:55:13.232Z,13.60
2023-10-25T06:57:40.337Z,13.50
2023-10-25T07:00:13.914Z,13.60
2023-10-25T07:02:50.272Z,13.60
2023-10-25T07:05:18.637Z,13.60
2023-10-25T07:07:54.434Z,13.60
2023-10-25T07:10:21.825Z,13.60
2023-10-25T07:12:51.431Z,13.70
2023-10-25T07:15:20.169Z,13.60
2023-10-25T07:17:47.860Z,13.70
2023-10-25T07:20:17.818Z,13.70
2023-10-25T07:22:47.801Z,13.80
2023-10-25T07:25:18.379Z,13.70
2023-10-25T07:27:46.134Z,13.90
2023-10-25T07:30:17.344Z,13.90
2023-10-25T07:32:46.002Z,14.00
2023-10-25T07:35:13.515Z,14.00
2023-10-25T07:37:41.598Z,15.00
2023-10-25T07:40:12.443Z,14.10
2023-10-25T07:42:41.581Z,14.20
2023-10-25T07:45:11.757Z,14.40
2023-10-25T07:47:39.448Z,14.50
2023-10-25T07:50:18.864Z,14.80
2023-10-25T07:52:48.089Z,14.80
2023-10-25T07:56:06.986Z,14.80
2023-10-25T08:00:51.694Z,14.90
2023-10-25T08:03:20.506Z,14.90
2023-10-25T08:05:50.123Z,14.90
2023-10-25T08:08:26.220Z,14.80
2023-10-25T08:11:02.078Z,14.80
2023-10-25T08:13:29.572Z,14.80
2023-10-25T08:16:00.475Z,14.90
2023-10-25T08:18:29.485Z,15.00
2023-10-25T08:20:58.805Z,14.90
2023-10-25T08:23:27.905Z,14.90
2023-10-25T08:25:59.602Z,14.90
2023-10-25T08:28:27.519Z,14.90
2023-10-25T08:30:54.660Z,15.00
2023-10-25T08:33:22.353Z,15.00
2023-10-25T08:35:49.581Z,15.00
2023-10-25T08:38:17.586Z,15.20
2023-10-25T08:40:46.448Z,15.00
2023-10-25T08:43:15.652Z,15.00
2023-10-25T08:45:48.595Z,15.00
2023-10-25T08:48:17.121Z,15.10
2023-10-25T08:50:48.047Z,15.10
2023-10-25T08:53:25.679Z,15.20
2023-10-25T08:55:55.389Z,15.30
2023-10-25T08:58:23.052Z,15.30
2023-10-25T09:03:34.616Z,15.40
2023-10-25T09:06:05.037Z,15.40
2023-10-25T09:11:41.466Z,15.50
2023-10-25T09:14:16.748Z,15.40
2023-10-25T09:16:48.382Z,15.40
2023-10-25T09:19:24.590Z,15.50
2023-10-25T09:21:56.784Z,15.50
2023-10-25T09:29:55.728Z,16.00
2023-10-25T09:32:26.630Z,16.30
2023-10-25T09:35:05.819Z,16.50
2023-10-25T09:37:39.239Z,16.50
2023-10-25T09:40:09.143Z,16.60
2023-10-25T09:42:40.321Z,16.80
2023-10-25T09:45:11.653Z,17.00
2023-10-25T09:47:46.807Z,16.90
2023-10-25T10:05:47.541Z,17.90
2023-10-25T10:11:41.781Z,18.50
2023-10-25T10:49:12.848Z,20.20
2023-10-25T11:08:43.273Z,20.60
2023-10-25T11:14:24.419Z,20.70
2023-10-25T11:17:02.495Z,20.70
2023-10-25T11:25:23.522Z,20.20
2023-10-25T11:30:45.479Z,20.20
2023-10-25T11:33:14.643Z,20.30
2023-10-25T11:35:47.493Z,20.20
2023-10-25T11:38:15.214Z,20.20
2023-10-25T11:40:47.653Z,20.10
2023-10-25T11:43:17.787Z,20.20
2023-10-25T11:45:48.679Z,20.20
2023-10-25T11:48:19.001Z,19.90
2023-10-25T11:50:46.325Z,19.90
2023-10-25T11:53:15.601Z,19.80
2023-10-25T11:55:49.568Z,19.70
2023-10-25T11:58:17.914Z,19.50
2023-10-25T12:00:49.005Z,19.60
2023-10-25T12:03:18.329Z,19.40
2023-10-25T12:05:45.896Z,19.50
2023-10-25T12:08:13.442Z,19.50
2023-10-25T12:10:41.294Z,19.40
2023-10-25T12:15:53.644Z,19.70
2023-10-25T12:18:20.718Z,19.70
2023-10-25T12:20:49.208Z,19.60
2023-10-25T12:23:16.587Z,19.60
2023-10-25T12:25:46.840Z,19.50
2023-10-25T12:28:17.768Z,19.50
2023-10-25T12:33:31.903Z,19.40
2023-10-25T12:35:59.144Z,19.40
2023-10-25T12:38:29.907Z,19.30
2023-10-25T12:58:22.142Z,19.10
2023-10-25T13:06:17.554Z,19.20
2023-10-25T13:08:49.522Z,19.10
2023-10-25T13:11:20.981Z,19.20
2023-10-25T13:13:50.878Z,19.10
2023-10-25T13:16:19.699Z,19.00
2023-10-25T13:18:49.960Z,18.90
2023-10-25T13:21:17.481Z,18.80
2023-10-25T13:23:52.909Z,18.70
2023-10-25T13:26:37.544Z,18.70
2023-10-25T13:29:13.050Z,18.70
2023-10-25T13:31:53.239Z,18.60
2023-10-25T13:34:23.780Z,18.50
2023-10-25T13:39:44.551Z,18.40
2023-10-25T13:42:16.243Z,18.30
2023-10-25T13:44:51.698Z,18.20
2023-10-25T13:47:21.680Z,18.10
2023-10-25T13:49:58.473Z,18.10
2023-10-25T13:52:32.854Z,18.00
2023-10-25T13:55:01.382Z,17.90
2023-10-25T13:57:31.006Z,18.00
2023-10-25T14:00:02.563Z,17.80
2023-10-25T14:02:29.581Z,17.80
2023-10-25T14:04:58.563Z,17.60
2023-10-25T14:07:29.523Z,17.60
2023-10-25T14:10:02.245Z,17.50
2023-10-25T14:12:31.697Z,17.50
2023-10-25T14:14:59.812Z,17.40
2023-10-25T14:17:29.161Z,17.40
2023-10-25T14:19:57.924Z,17.30
2023-10-25T14:22:48.143Z,17.20
2023-10-25T14:34:23.435Z,17.00
2023-10-25T15:48:10.219Z,15.00
2023-10-25T15:50:42.743Z,14.80
2023-10-25T15:53:17.434Z,14.70
2023-10-25T15:55:52.838Z,14.60
2023-10-25T15:58:29.198Z,14.40
2023-10-25T16:00:56.701Z,14.40
2023-10-25T16:03:25.749Z,14.30
2023-10-25T16:05:57.436Z,14.20
2023-10-25T16:08:31.024Z,14.20
2023-10-25T16:11:03.809Z,14.10
2023-10-25T16:13:33.860Z,14.00
2023-10-25T16:16:05.516Z,14.00
2023-10-25T16:18:34.276Z,13.90
2023-10-25T16:21:12.759Z,13.80
2023-10-25T16:26:34.338Z,13.70
2023-10-25T17:17:30.363Z,14.00
2023-10-25T17:34:46.276Z,13.80
2023-10-25T17:40:04.737Z,13.80
2023-10-25T17:45:19.789Z,13.90
2023-10-25T18:35:54.593Z,13.80
2023-10-25T20:55:47.318Z,13.70
2023-10-25T21:04:03.621Z,13.70
2023-10-25T21:23:01.293Z,13.80
2023-10-25T21:25:39.087Z,13.80
2023-10-25T21:30:53.550Z,13.70
2023-10-25T21:33:22.372Z,13.80
2023-10-25T21:35:50.204Z,13.70
2023-10-25T21:38:17.080Z,13.70
2023-10-25T21:40:46.231Z,13.80
2023-10-25T21:43:13.179Z,13.80
2023-10-25T21:45:43.807Z,13.80
2023-10-25T21:48:11.797Z,13.80
2023-10-25T21:50:40.524Z,13.90
2023-10-25T21:53:08.708Z,13.80
2023-10-25T21:55:39.536Z,13.80
2023-10-25T21:59:45.734Z,13.80
2023-10-25T22:00:55.751Z,13.80
2023-10-25T22:03:29.877Z,13.80
2023-10-25T22:06:00.504Z,13.80
2023-10-25T22:08:28.877Z,13.90
2023-10-25T22:10:57.449Z,13.80
2023-10-25T22:13:29.129Z,14.40
2023-10-25T22:15:57.278Z,13.80
2023-10-25T22:18:24.832Z,13.80
2023-10-25T22:20:53.178Z,13.70
2023-10-25T22:23:20.745Z,13.70
2023-10-25T22:25:48.897Z,13.70
2023-10-25T22:28:17.117Z,13.60
2023-10-25T22:30:47.488Z,13.70
2023-10-25T22:33:21.808Z,13.70
2023-10-25T22:35:52.159Z,13.60
2023-10-25T22:38:24.288Z,13.70
2023-10-25T22:40:54.131Z,13.60
2023-10-25T22:43:23.357Z,13.60
2023-10-25T22:45:52.688Z,13.50
2023-10-25T22:48:22.637Z,13.60
2023-10-25T22:50:56.037Z,13.50
2023-10-25T22:53:23.911Z,13.60
2023-10-25T22:55:52.921Z,13.60
2023-10-25T22:58:21.736Z,13.60
2023-10-25T23:00:48.622Z,13.60
2023-10-25T23:03:15.657Z,13.60
2023-10-25T23:05:48.670Z,13.70
2023-10-25T23:08:23.920Z,13.60
2023-10-25T23:10:53.760Z,13.70
2023-10-25T23:13:21.339Z,13.70
2023-10-25T23:15:48.863Z,13.70
2023-10-25T23:18:17.604Z,13.70
2023-10-25T23:20:54.704Z,13.70
2023-10-25T23:23:41.945Z,13.60
2023-10-25T23:26:12.601Z,13.60
2023-10-25T23:28:40.695Z,13.60
2023-10-25T23:31:13.966Z,13.60
2023-10-25T23:33:47.945Z,13.50
2023-10-25T23:36:17.662Z,13.50
2023-10-25T23:38:45.114Z,13.60
2023-10-25T23:41:18.714Z,13.50
2023-10-25T23:43:47.475Z,13.50
2023-10-25T23:46:16.132Z,13.50
2023-10-25T23:48:44.245Z,13.50
2023-10-25T23:51:11.218Z,13.40
2023-10-25T23:53:39.683Z,13.50
2023-10-25T23:56:36.343Z,13.50
2023-10-25T23:59:06.189Z,13.40
